Terminal Aerodrome Forecast
Issued by NWS

Current Version | Previous Version | Graphics & Text | Print | Product List | Glossary On
Versions: 1 2 3 4 5 6 7 8 9 10 11 12 13 14 15 16 17 18 19
305
FTUS41 KPBZ 062338
TAFHLG
TAF
KHLG 062338Z 0700/0724 15006KT P6SM -DZ OVC008
     FM070100 21005KT P6SM OVC008
     FM070800 28008KT P6SM OVC015
     FM071400 26006KT P6SM BKN040=

USA.gov is the U.S. government's official web portal to all federal, state and local government web resources and services.